Beispiel Metar:
2008/07/28 07:00 CYXU 280700Z 26005KT 15SM SCT120 20/13 A2983 RMK AC4 SLP099
Erklärung:
  1. Einegeleitet wird der Schlüssel vom aktuellen Datum und der Uhrzeit
  2. CYXU: der ICAO Flughafencode
  3. 280700Z: Beobachtungszeitpunkt, 28. Tag aktuellen Monats, 07:00 Uhr UTC
  4. 26005KT: Windrichtung und -geschwindigkeit, 260° mit 05 Knoten
  5. 15SM: Sichtweite
  6. SCT120: Bewölkung, Scattered (3 bis 4 Achtel), Höhe der Wolkenuntergrenze 12000 Fuß
  7. 20/13: Temperatur und Taupunkt, 20° und 13° (M für negative Werte)
  8. A2983: Luftdruck am Standort reduziert auf NN, (Einheiten A für inHg und Q für hPa) 2983 inHg
  9. abschliessend folgt der Forecast verschlüsselt